map of OND home
Great Circle Mapper logo
OND - Airport
Location
City:  Ondangwa, Namibia
ICAO / IATA:FYOA / OND

Details
Type:Airport (Aerodrome, Airfield)
Latitude:1752'42"S (-17.878213)
Longitude:1557'09"E (15.952600)
Datum:WGS 1984
Elevation:3599 ft (1097 m)
Variation:8.3W (WMM2015 magnetic declination)
Runways:1
Longest:9800 × 98 ft (2987 × 30 m), paved

Time
Time Zone:UTC+1 (DST+2)
Local Time:

Weather
METAR:FYOA 201200Z 22004KT CAVOK 35/05 Q1015

Related Locations
Nearby:
Farthest:BKH: 12041 mi / 19378 km
Kekaha, Kauai [Barking Sands PMRF Airport], Kauai, HI, US

Find:

   beyond  
but within

Other Information
Maps:
NOTAMs:
Links:
Sources:

  
flag of Namibia   

Sectional Chart

Flight Planning
at skyvector.com

Satellite Image

Google Maps Satellite View

 

Copyright © 2004-2014 Karl L. Swartz. All rights reserved.
The Great Circle Mapper name and logo are trademarks of the Great Circle Mapper.
All other trademarks mentioned herein belong to their respective owners.
Please see credits for attibutions and further copyright information.

  Follow gcmap on Facebook Follow gcmap on Twitter

hCard Microformat

Geo Microformat